sensor_id;sensor_type;location;lat;lon;timestamp;P1;durP1;ratioP1;P2;durP2;ratioP2
36259;SDS011;22296;50.824;5.644;2022-10-18T00:02:18;5.03;;;2.63;;
36259;SDS011;22296;50.824;5.644;2022-10-18T00:04:45;3.55;;;2.72;;
36259;SDS011;22296;50.824;5.644;2022-10-18T00:07:12;3.78;;;2.55;;
36259;SDS011;22296;50.824;5.644;2022-10-18T00:09:39;3.63;;;2.80;;
36259;SDS011;22296;50.824;5.644;2022-10-18T00:12:06;2.78;;;2.40;;
36259;SDS011;22296;50.824;5.644;2022-10-18T00:14:33;6.88;;;2.83;;
36259;SDS011;22296;50.824;5.644;2022-10-18T00:17:00;5.07;;;2.83;;
36259;SDS011;22296;50.824;5.644;2022-10-18T00:19:27;3.50;;;2.58;;
36259;SDS011;22296;50.824;5.644;2022-10-18T00:21:54;3.33;;;2.47;;
36259;SDS011;22296;50.824;5.644;2022-10-18T00:24:21;3.45;;;2.35;;
36259;SDS011;22296;50.824;5.644;2022-10-18T00:26:48;3.88;;;2.55;;
36259;SDS011;22296;50.824;5.644;2022-10-18T00:29:15;3.33;;;2.70;;
36259;SDS011;22296;50.824;5.644;2022-10-18T00:31:43;2.60;;;2.10;;
36259;SDS011;22296;50.824;5.644;2022-10-18T00:34:11;3.80;;;2.75;;
36259;SDS011;22296;50.824;5.644;2022-10-18T00:36:39;3.83;;;2.60;;
36259;SDS011;22296;50.824;5.644;2022-10-18T00:39:07;3.35;;;2.40;;
36259;SDS011;22296;50.824;5.644;2022-10-18T00:41:39;3.03;;;2.10;;
36259;SDS011;22296;50.824;5.644;2022-10-18T00:46:42;2.85;;;2.22;;
36259;SDS011;22296;50.824;5.644;2022-10-18T00:51:57;3.15;;;2.78;;
36259;SDS011;22296;50.824;5.644;2022-10-18T00:54:27;2.63;;;2.40;;
36259;SDS011;22296;50.824;5.644;2022-10-18T00:56:56;3.10;;;2.38;;
36259;SDS011;22296;50.824;5.644;2022-10-18T00:59:23;3.28;;;2.25;;
36259;SDS011;22296;50.824;5.644;2022-10-18T01:01:51;3.50;;;2.40;;
36259;SDS011;22296;50.824;5.644;2022-10-18T01:04:18;5.53;;;2.33;;
36259;SDS011;22296;50.824;5.644;2022-10-18T01:09:58;2.95;;;2.35;;
36259;SDS011;22296;50.824;5.644;2022-10-18T01:12:43;3.22;;;2.78;;
36259;SDS011;22296;50.824;5.644;2022-10-18T01:15:24;5.43;;;2.25;;
36259;SDS011;22296;50.824;5.644;2022-10-18T01:29:47;3.22;;;2.20;;
36259;SDS011;22296;50.824;5.644;2022-10-18T01:32:32;3.45;;;2.35;;
36259;SDS011;22296;50.824;5.644;2022-10-18T01:35:06;3.58;;;2.40;;
36259;SDS011;22296;50.824;5.644;2022-10-18T01:37:37;3.08;;;2.20;;
36259;SDS011;22296;50.824;5.644;2022-10-18T01:40:06;2.83;;;2.37;;
36259;SDS011;22296;50.824;5.644;2022-10-18T01:42:34;3.03;;;2.58;;
36259;SDS011;22296;50.824;5.644;2022-10-18T01:45:01;2.78;;;2.10;;
36259;SDS011;22296;50.824;5.644;2022-10-18T01:47:29;2.60;;;2.10;;
36259;SDS011;22296;50.824;5.644;2022-10-18T01:49:58;2.60;;;1.90;;
36259;SDS011;22296;50.824;5.644;2022-10-18T01:52:25;2.53;;;2.20;;
36259;SDS011;22296;50.824;5.644;2022-10-18T01:54:52;5.38;;;2.20;;
36259;SDS011;22296;50.824;5.644;2022-10-18T02:13:31;3.50;;;2.10;;
36259;SDS011;22296;50.824;5.644;2022-10-18T02:16:06;4.20;;;2.25;;
36259;SDS011;22296;50.824;5.644;2022-10-18T02:18:40;2.47;;;1.90;;
36259;SDS011;22296;50.824;5.644;2022-10-18T02:21:15;4.22;;;2.05;;
36259;SDS011;22296;50.824;5.644;2022-10-18T02:23:45;3.45;;;2.47;;
36259;SDS011;22296;50.824;5.644;2022-10-18T02:26:13;3.20;;;2.30;;
36259;SDS011;22296;50.824;5.644;2022-10-18T02:28:41;3.17;;;1.67;;
36259;SDS011;22296;50.824;5.644;2022-10-18T02:31:17;2.47;;;2.03;;
36259;SDS011;22296;50.824;5.644;2022-10-18T02:39:11;2.35;;;2.03;;
36259;SDS011;22296;50.824;5.644;2022-10-18T02:41:41;2.50;;;2.20;;
36259;SDS011;22296;50.824;5.644;2022-10-18T02:44:09;2.45;;;1.80;;
36259;SDS011;22296;50.824;5.644;2022-10-18T02:46:36;3.47;;;2.05;;
36259;SDS011;22296;50.824;5.644;2022-10-18T02:49:03;2.25;;;1.95;;
36259;SDS011;22296;50.824;5.644;2022-10-18T02:51:30;3.83;;;2.00;;
36259;SDS011;22296;50.824;5.644;2022-10-18T02:53:57;1.98;;;1.63;;
36259;SDS011;22296;50.824;5.644;2022-10-18T02:56:24;2.35;;;1.98;;
36259;SDS011;22296;50.824;5.644;2022-10-18T02:58:50;2.35;;;1.80;;
36259;SDS011;22296;50.824;5.644;2022-10-18T03:01:17;4.22;;;2.15;;
36259;SDS011;22296;50.824;5.644;2022-10-18T03:03:43;2.00;;;1.80;;
36259;SDS011;22296;50.824;5.644;2022-10-18T03:06:10;3.25;;;2.00;;
36259;SDS011;22296;50.824;5.644;2022-10-18T03:08:37;2.15;;;1.70;;
36259;SDS011;22296;50.824;5.644;2022-10-18T03:11:04;2.40;;;2.00;;
36259;SDS011;22296;50.824;5.644;2022-10-18T03:13:31;2.15;;;1.77;;
36259;SDS011;22296;50.824;5.644;2022-10-18T03:15:59;1.73;;;1.63;;
36259;SDS011;22296;50.824;5.644;2022-10-18T03:18:26;1.83;;;1.67;;
36259;SDS011;22296;50.824;5.644;2022-10-18T03:20:53;2.67;;;2.17;;
36259;SDS011;22296;50.824;5.644;2022-10-18T03:23:19;2.25;;;1.80;;
36259;SDS011;22296;50.824;5.644;2022-10-18T03:25:46;2.50;;;1.85;;
36259;SDS011;22296;50.824;5.644;2022-10-18T03:28:13;1.77;;;1.63;;
36259;SDS011;22296;50.824;5.644;2022-10-18T03:30:39;3.00;;;2.10;;
36259;SDS011;22296;50.824;5.644;2022-10-18T03:33:06;3.00;;;2.10;;
36259;SDS011;22296;50.824;5.644;2022-10-18T03:35:33;2.28;;;1.65;;
36259;SDS011;22296;50.824;5.644;2022-10-18T03:37:59;2.50;;;2.00;;
36259;SDS011;22296;50.824;5.644;2022-10-18T03:40:26;2.53;;;1.90;;
36259;SDS011;22296;50.824;5.644;2022-10-18T03:42:53;2.80;;;1.85;;
36259;SDS011;22296;50.824;5.644;2022-10-18T03:45:19;4.07;;;1.90;;
36259;SDS011;22296;50.824;5.644;2022-10-18T03:47:46;4.00;;;1.98;;
36259;SDS011;22296;50.824;5.644;2022-10-18T03:50:13;2.60;;;1.55;;
36259;SDS011;22296;50.824;5.644;2022-10-18T03:52:39;2.13;;;1.65;;
36259;SDS011;22296;50.824;5.644;2022-10-18T03:55:06;2.10;;;1.90;;
36259;SDS011;22296;50.824;5.644;2022-10-18T03:57:33;2.08;;;1.63;;
36259;SDS011;22296;50.824;5.644;2022-10-18T04:00:00;2.15;;;1.63;;
36259;SDS011;22296;50.824;5.644;2022-10-18T04:02:37;2.40;;;1.67;;
36259;SDS011;22296;50.824;5.644;2022-10-18T04:05:04;1.70;;;1.60;;
36259;SDS011;22296;50.824;5.644;2022-10-18T04:07:31;2.03;;;1.75;;
36259;SDS011;22296;50.824;5.644;2022-10-18T04:09:57;1.83;;;1.65;;
36259;SDS011;22296;50.824;5.644;2022-10-18T04:12:24;2.05;;;1.60;;
36259;SDS011;22296;50.824;5.644;2022-10-18T04:14:51;2.00;;;1.40;;
36259;SDS011;22296;50.824;5.644;2022-10-18T04:17:20;2.72;;;1.80;;
36259;SDS011;22296;50.824;5.644;2022-10-18T04:19:47;3.22;;;2.05;;
36259;SDS011;22296;50.824;5.644;2022-10-18T04:22:14;1.90;;;1.50;;
36259;SDS011;22296;50.824;5.644;2022-10-18T04:24:41;3.85;;;1.67;;
36259;SDS011;22296;50.824;5.644;2022-10-18T04:27:07;2.80;;;1.65;;
36259;SDS011;22296;50.824;5.644;2022-10-18T04:29:34;2.00;;;1.50;;
36259;SDS011;22296;50.824;5.644;2022-10-18T04:32:01;1.73;;;1.55;;
36259;SDS011;22296;50.824;5.644;2022-10-18T04:34:27;2.92;;;1.73;;
36259;SDS011;22296;50.824;5.644;2022-10-18T04:36:54;1.88;;;1.67;;
36259;SDS011;22296;50.824;5.644;2022-10-18T04:39:21;1.75;;;1.60;;
36259;SDS011;22296;50.824;5.644;2022-10-18T04:41:48;2.15;;;1.63;;
36259;SDS011;22296;50.824;5.644;2022-10-18T04:44:14;2.25;;;1.50;;
36259;SDS011;22296;50.824;5.644;2022-10-18T04:46:41;1.60;;;1.50;;
36259;SDS011;22296;50.824;5.644;2022-10-18T04:49:08;3.47;;;1.90;;
36259;SDS011;22296;50.824;5.644;2022-10-18T04:51:34;1.73;;;1.63;;
36259;SDS011;22296;50.824;5.644;2022-10-18T04:54:01;2.60;;;1.50;;
36259;SDS011;22296;50.824;5.644;2022-10-18T04:56:28;2.05;;;1.70;;
36259;SDS011;22296;50.824;5.644;2022-10-18T04:58:55;2.15;;;1.60;;
36259;SDS011;22296;50.824;5.644;2022-10-18T05:01:21;2.25;;;1.48;;
36259;SDS011;22296;50.824;5.644;2022-10-18T05:03:51;1.70;;;1.60;;
36259;SDS011;22296;50.824;5.644;2022-10-18T05:06:20;2.03;;;1.65;;
36259;SDS011;22296;50.824;5.644;2022-10-18T05:08:47;3.15;;;1.73;;
36259;SDS011;22296;50.824;5.644;2022-10-18T05:11:14;2.63;;;1.58;;
36259;SDS011;22296;50.824;5.644;2022-10-18T05:13:41;1.80;;;1.58;;
36259;SDS011;22296;50.824;5.644;2022-10-18T05:16:12;3.15;;;1.70;;
36259;SDS011;22296;50.824;5.644;2022-10-18T05:18:39;2.78;;;1.70;;
36259;SDS011;22296;50.824;5.644;2022-10-18T05:21:05;2.28;;;1.63;;
36259;SDS011;22296;50.824;5.644;2022-10-18T05:23:32;3.60;;;1.60;;
36259;SDS011;22296;50.824;5.644;2022-10-18T05:26:02;2.50;;;1.50;;
36259;SDS011;22296;50.824;5.644;2022-10-18T05:28:30;1.60;;;1.40;;
36259;SDS011;22296;50.824;5.644;2022-10-18T05:31:07;2.58;;;1.67;;
36259;SDS011;22296;50.824;5.644;2022-10-18T05:33:35;1.35;;;1.23;;
36259;SDS011;22296;50.824;5.644;2022-10-18T05:36:02;2.38;;;1.65;;
36259;SDS011;22296;50.824;5.644;2022-10-18T05:38:30;1.60;;;1.35;;
36259;SDS011;22296;50.824;5.644;2022-10-18T05:40:57;2.97;;;1.75;;
36259;SDS011;22296;50.824;5.644;2022-10-18T05:43:27;2.55;;;1.25;;
36259;SDS011;22296;50.824;5.644;2022-10-18T05:45:54;2.25;;;1.50;;
36259;SDS011;22296;50.824;5.644;2022-10-18T05:48:21;2.03;;;1.70;;
36259;SDS011;22296;50.824;5.644;2022-10-18T05:50:48;1.60;;;1.45;;
36259;SDS011;22296;50.824;5.644;2022-10-18T05:53:14;2.97;;;1.73;;
36259;SDS011;22296;50.824;5.644;2022-10-18T05:56:01;1.73;;;1.58;;
36259;SDS011;22296;50.824;5.644;2022-10-18T05:58:28;1.55;;;1.45;;
36259;SDS011;22296;50.824;5.644;2022-10-18T06:00:58;1.67;;;1.38;;
36259;SDS011;22296;50.824;5.644;2022-10-18T06:03:26;3.28;;;1.70;;
36259;SDS011;22296;50.824;5.644;2022-10-18T06:05:57;2.67;;;1.60;;
36259;SDS011;22296;50.824;5.644;2022-10-18T06:08:27;1.52;;;1.42;;
36259;SDS011;22296;50.824;5.644;2022-10-18T06:10:54;3.30;;;1.50;;
36259;SDS011;22296;50.824;5.644;2022-10-18T06:13:21;4.72;;;1.75;;
36259;SDS011;22296;50.824;5.644;2022-10-18T06:15:47;1.75;;;1.63;;
36259;SDS011;22296;50.824;5.644;2022-10-18T06:18:14;2.40;;;1.98;;
36259;SDS011;22296;50.824;5.644;2022-10-18T06:20:41;3.15;;;2.05;;
36259;SDS011;22296;50.824;5.644;2022-10-18T06:23:08;2.42;;;1.92;;
36259;SDS011;22296;50.824;5.644;2022-10-18T06:25:35;2.95;;;1.92;;
36259;SDS011;22296;50.824;5.644;2022-10-18T06:28:03;3.00;;;2.00;;
36259;SDS011;22296;50.824;5.644;2022-10-18T06:30:35;3.25;;;2.08;;
36259;SDS011;22296;50.824;5.644;2022-10-18T06:33:02;7.90;;;2.90;;
36259;SDS011;22296;50.824;5.644;2022-10-18T06:35:28;12.95;;;5.20;;
36259;SDS011;22296;50.824;5.644;2022-10-18T06:37:55;22.23;;;12.65;;
36259;SDS011;22296;50.824;5.644;2022-10-18T06:40:22;39.47;;;20.08;;
36259;SDS011;22296;50.824;5.644;2022-10-18T06:42:49;50.50;;;25.30;;
36259;SDS011;22296;50.824;5.644;2022-10-18T06:45:31;56.13;;;29.33;;
36259;SDS011;22296;50.824;5.644;2022-10-18T06:47:58;66.15;;;32.55;;
36259;SDS011;22296;50.824;5.644;2022-10-18T06:50:25;63.17;;;33.80;;
36259;SDS011;22296;50.824;5.644;2022-10-18T06:52:51;68.70;;;37.03;;
36259;SDS011;22296;50.824;5.644;2022-10-18T06:55:18;80.68;;;41.78;;
36259;SDS011;22296;50.824;5.644;2022-10-18T06:57:45;80.30;;;42.55;;
36259;SDS011;22296;50.824;5.644;2022-10-18T07:00:11;86.25;;;47.00;;
36259;SDS011;22296;50.824;5.644;2022-10-18T07:02:39;86.30;;;47.17;;
36259;SDS011;22296;50.824;5.644;2022-10-18T07:05:07;86.93;;;48.70;;
36259;SDS011;22296;50.824;5.644;2022-10-18T07:07:34;94.50;;;51.97;;
36259;SDS011;22296;50.824;5.644;2022-10-18T07:10:01;91.60;;;53.28;;
36259;SDS011;22296;50.824;5.644;2022-10-18T07:12:28;99.75;;;54.40;;
36259;SDS011;22296;50.824;5.644;2022-10-18T07:14:56;101.57;;;58.10;;
36259;SDS011;22296;50.824;5.644;2022-10-18T07:17:22;107.28;;;58.33;;
36259;SDS011;22296;50.824;5.644;2022-10-18T07:19:49;107.03;;;58.40;;
36259;SDS011;22296;50.824;5.644;2022-10-18T07:22:16;104.05;;;59.70;;
36259;SDS011;22296;50.824;5.644;2022-10-18T07:24:42;108.70;;;61.70;;
36259;SDS011;22296;50.824;5.644;2022-10-18T07:27:09;110.75;;;62.20;;
36259;SDS011;22296;50.824;5.644;2022-10-18T07:29:36;111.18;;;61.40;;
36259;SDS011;22296;50.824;5.644;2022-10-18T07:32:06;104.45;;;59.50;;
36259;SDS011;22296;50.824;5.644;2022-10-18T07:34:32;110.60;;;61.08;;
36259;SDS011;22296;50.824;5.644;2022-10-18T07:37:00;110.22;;;62.80;;
36259;SDS011;22296;50.824;5.644;2022-10-18T07:39:27;108.80;;;62.63;;
36259;SDS011;22296;50.824;5.644;2022-10-18T07:41:54;107.35;;;60.83;;
36259;SDS011;22296;50.824;5.644;2022-10-18T07:44:20;113.20;;;62.85;;
36259;SDS011;22296;50.824;5.644;2022-10-18T07:46:47;112.03;;;61.42;;
36259;SDS011;22296;50.824;5.644;2022-10-18T07:49:14;111.32;;;62.42;;
36259;SDS011;22296;50.824;5.644;2022-10-18T07:51:40;111.32;;;63.40;;
36259;SDS011;22296;50.824;5.644;2022-10-18T07:54:08;114.10;;;62.97;;
36259;SDS011;22296;50.824;5.644;2022-10-18T07:56:34;113.55;;;62.88;;
36259;SDS011;22296;50.824;5.644;2022-10-18T07:59:01;111.07;;;63.70;;
36259;SDS011;22296;50.824;5.644;2022-10-18T08:01:28;111.95;;;63.97;;
36259;SDS011;22296;50.824;5.644;2022-10-18T08:03:55;113.07;;;64.38;;
36259;SDS011;22296;50.824;5.644;2022-10-18T08:06:21;116.53;;;65.95;;
36259;SDS011;22296;50.824;5.644;2022-10-18T08:08:48;114.68;;;64.82;;
36259;SDS011;22296;50.824;5.644;2022-10-18T08:11:17;110.05;;;63.80;;
36259;SDS011;22296;50.824;5.644;2022-10-18T08:13:45;111.22;;;66.05;;
36259;SDS011;22296;50.824;5.644;2022-10-18T08:16:13;106.85;;;62.50;;
36259;SDS011;22296;50.824;5.644;2022-10-18T08:18:41;108.85;;;62.75;;
36259;SDS011;22296;50.824;5.644;2022-10-18T08:21:09;109.25;;;63.95;;
36259;SDS011;22296;50.824;5.644;2022-10-18T08:23:37;111.03;;;66.10;;
36259;SDS011;22296;50.824;5.644;2022-10-18T08:26:06;112.40;;;64.80;;
36259;SDS011;22296;50.824;5.644;2022-10-18T08:28:34;112.72;;;65.20;;
36259;SDS011;22296;50.824;5.644;2022-10-18T08:31:05;109.68;;;63.28;;
36259;SDS011;22296;50.824;5.644;2022-10-18T08:33:33;112.20;;;64.67;;
36259;SDS011;22296;50.824;5.644;2022-10-18T08:36:01;110.07;;;64.43;;
36259;SDS011;22296;50.824;5.644;2022-10-18T08:38:31;106.68;;;63.45;;
36259;SDS011;22296;50.824;5.644;2022-10-18T08:46:45;99.60;;;59.00;;
36259;SDS011;22296;50.824;5.644;2022-10-18T08:51:46;100.50;;;57.45;;
36259;SDS011;22296;50.824;5.644;2022-10-18T08:57:19;98.38;;;55.72;;
36259;SDS011;22296;50.824;5.644;2022-10-18T08:59:46;95.50;;;55.80;;
36259;SDS011;22296;50.824;5.644;2022-10-18T09:15:57;86.45;;;49.08;;
36259;SDS011;22296;50.824;5.644;2022-10-18T09:21:27;83.85;;;48.92;;
36259;SDS011;22296;50.824;5.644;2022-10-18T09:26:43;82.35;;;48.30;;
36259;SDS011;22296;50.824;5.644;2022-10-18T09:29:20;79.78;;;45.55;;
36259;SDS011;22296;50.824;5.644;2022-10-18T09:32:20;78.57;;;44.88;;
36259;SDS011;22296;50.824;5.644;2022-10-18T09:35:01;78.57;;;44.88;;
36259;SDS011;22296;50.824;5.644;2022-10-18T09:37:37;75.15;;;43.50;;
36259;SDS011;22296;50.824;5.644;2022-10-18T09:40:18;74.72;;;43.15;;
36259;SDS011;22296;50.824;5.644;2022-10-18T09:45:30;70.78;;;41.90;;
36259;SDS011;22296;50.824;5.644;2022-10-18T09:51:23;67.20;;;39.83;;
36259;SDS011;22296;50.824;5.644;2022-10-18T09:56:35;66.22;;;40.00;;
36259;SDS011;22296;50.824;5.644;2022-10-18T09:59:10;65.55;;;38.80;;
36259;SDS011;22296;50.824;5.644;2022-10-18T10:01:48;64.28;;;38.83;;
36259;SDS011;22296;50.824;5.644;2022-10-18T10:04:15;66.72;;;39.60;;
36259;SDS011;22296;50.824;5.644;2022-10-18T10:06:48;67.43;;;38.92;;
36259;SDS011;22296;50.824;5.644;2022-10-18T10:09:16;68.47;;;39.22;;
36259;SDS011;22296;50.824;5.644;2022-10-18T10:11:47;65.68;;;39.83;;
36259;SDS011;22296;50.824;5.644;2022-10-18T10:14:16;65.70;;;38.00;;
36259;SDS011;22296;50.824;5.644;2022-10-18T10:16:45;65.40;;;38.97;;
36259;SDS011;22296;50.824;5.644;2022-10-18T10:19:19;65.07;;;37.80;;
36259;SDS011;22296;50.824;5.644;2022-10-18T10:22:08;60.03;;;36.37;;
36259;SDS011;22296;50.824;5.644;2022-10-18T10:24:42;64.40;;;37.35;;
36259;SDS011;22296;50.824;5.644;2022-10-18T10:27:15;59.58;;;36.55;;
36259;SDS011;22296;50.824;5.644;2022-10-18T10:32:13;63.47;;;35.70;;
36259;SDS011;22296;50.824;5.644;2022-10-18T10:34:42;61.55;;;37.30;;
36259;SDS011;22296;50.824;5.644;2022-10-18T10:40:12;58.42;;;35.70;;
36259;SDS011;22296;50.824;5.644;2022-10-18T10:45:35;57.28;;;35.47;;
36259;SDS011;22296;50.824;5.644;2022-10-18T10:48:05;58.05;;;33.58;;
36259;SDS011;22296;50.824;5.644;2022-10-18T10:53:43;55.72;;;32.97;;
36259;SDS011;22296;50.824;5.644;2022-10-18T10:56:17;53.28;;;32.92;;
36259;SDS011;22296;50.824;5.644;2022-10-18T10:58:48;52.47;;;32.45;;
36259;SDS011;22296;50.824;5.644;2022-10-18T11:03:57;52.47;;;33.08;;
36259;SDS011;22296;50.824;5.644;2022-10-18T11:06:56;51.95;;;31.83;;
36259;SDS011;22296;50.824;5.644;2022-10-18T11:12:32;51.53;;;30.98;;
36259;SDS011;22296;50.824;5.644;2022-10-18T11:20:37;50.92;;;31.00;;
36259;SDS011;22296;50.824;5.644;2022-10-18T11:23:09;50.40;;;29.42;;
36259;SDS011;22296;50.824;5.644;2022-10-18T11:25:46;51.33;;;30.05;;
36259;SDS011;22296;50.824;5.644;2022-10-18T11:28:32;46.58;;;28.67;;
36259;SDS011;22296;50.824;5.644;2022-10-18T11:34:14;48.75;;;29.13;;
36259;SDS011;22296;50.824;5.644;2022-10-18T11:51:21;40.72;;;25.65;;
36259;SDS011;22296;50.824;5.644;2022-10-18T11:54:18;38.67;;;24.02;;
36259;SDS011;22296;50.824;5.644;2022-10-18T12:03:19;38.38;;;23.77;;
36259;SDS011;22296;50.824;5.644;2022-10-18T12:05:52;35.67;;;23.27;;
36259;SDS011;22296;50.824;5.644;2022-10-18T12:11:42;38.78;;;23.65;;
36259;SDS011;22296;50.824;5.644;2022-10-18T12:14:32;39.70;;;24.65;;
36259;SDS011;22296;50.824;5.644;2022-10-18T12:17:05;38.40;;;23.67;;
36259;SDS011;22296;50.824;5.644;2022-10-18T12:19:58;36.25;;;22.45;;
36259;SDS011;22296;50.824;5.644;2022-10-18T12:22:37;36.30;;;23.50;;
36259;SDS011;22296;50.824;5.644;2022-10-18T12:25:11;39.08;;;24.23;;
36259;SDS011;22296;50.824;5.644;2022-10-18T12:27:40;36.70;;;22.70;;
36259;SDS011;22296;50.824;5.644;2022-10-18T12:33:20;37.55;;;23.10;;
36259;SDS011;22296;50.824;5.644;2022-10-18T12:38:35;32.08;;;20.65;;
36259;SDS011;22296;50.824;5.644;2022-10-18T12:41:10;33.55;;;21.08;;
36259;SDS011;22296;50.824;5.644;2022-10-18T12:44:00;35.50;;;21.58;;
36259;SDS011;22296;50.824;5.644;2022-10-18T12:46:46;32.63;;;20.45;;
36259;SDS011;22296;50.824;5.644;2022-10-18T12:49:23;32.78;;;20.00;;
36259;SDS011;22296;50.824;5.644;2022-10-18T12:51:55;31.48;;;19.92;;
36259;SDS011;22296;50.824;5.644;2022-10-18T12:54:49;31.98;;;20.15;;
36259;SDS011;22296;50.824;5.644;2022-10-18T13:13:57;27.55;;;17.83;;
36259;SDS011;22296;50.824;5.644;2022-10-18T13:34:14;24.55;;;15.98;;
36259;SDS011;22296;50.824;5.644;2022-10-18T13:39:37;26.17;;;16.10;;
36259;SDS011;22296;50.824;5.644;2022-10-18T13:44:41;22.77;;;14.73;;
36259;SDS011;22296;50.824;5.644;2022-10-18T14:00:46;22.90;;;14.65;;
36259;SDS011;22296;50.824;5.644;2022-10-18T14:06:47;20.83;;;12.63;;
36259;SDS011;22296;50.824;5.644;2022-10-18T14:09:23;22.25;;;12.90;;
36259;SDS011;22296;50.824;5.644;2022-10-18T14:17:44;21.15;;;12.55;;
36259;SDS011;22296;50.824;5.644;2022-10-18T14:25:31;20.33;;;13.23;;
36259;SDS011;22296;50.824;5.644;2022-10-18T14:28:22;22.13;;;13.82;;
36259;SDS011;22296;50.824;5.644;2022-10-18T14:31:14;17.55;;;12.48;;
36259;SDS011;22296;50.824;5.644;2022-10-18T14:33:44;18.50;;;12.80;;
36259;SDS011;22296;50.824;5.644;2022-10-18T14:38:50;19.27;;;12.88;;
36259;SDS011;22296;50.824;5.644;2022-10-18T14:46:48;17.58;;;10.82;;
36259;SDS011;22296;50.824;5.644;2022-10-18T14:49:20;20.23;;;11.93;;
36259;SDS011;22296;50.824;5.644;2022-10-18T14:51:49;17.15;;;12.13;;
36259;SDS011;22296;50.824;5.644;2022-10-18T14:54:30;18.90;;;12.10;;
36259;SDS011;22296;50.824;5.644;2022-10-18T14:56:58;16.65;;;11.48;;
36259;SDS011;22296;50.824;5.644;2022-10-18T14:59:27;15.93;;;11.30;;
36259;SDS011;22296;50.824;5.644;2022-10-18T15:01:58;17.45;;;11.50;;
36259;SDS011;22296;50.824;5.644;2022-10-18T15:04:35;18.00;;;11.30;;
36259;SDS011;22296;50.824;5.644;2022-10-18T15:07:03;17.10;;;10.93;;
36259;SDS011;22296;50.824;5.644;2022-10-18T15:09:33;15.68;;;10.80;;
36259;SDS011;22296;50.824;5.644;2022-10-18T15:12:02;15.30;;;10.77;;
36259;SDS011;22296;50.824;5.644;2022-10-18T15:16:59;15.43;;;10.18;;
36259;SDS011;22296;50.824;5.644;2022-10-18T15:19:33;16.80;;;10.60;;
36259;SDS011;22296;50.824;5.644;2022-10-18T15:27:57;14.52;;;10.05;;
36259;SDS011;22296;50.824;5.644;2022-10-18T15:30:26;13.47;;;9.40;;
36259;SDS011;22296;50.824;5.644;2022-10-18T15:35:35;13.30;;;9.80;;
36259;SDS011;22296;50.824;5.644;2022-10-18T15:38:14;16.10;;;10.43;;
36259;SDS011;22296;50.824;5.644;2022-10-18T15:40:52;15.43;;;10.18;;
36259;SDS011;22296;50.824;5.644;2022-10-18T15:45:51;13.73;;;9.30;;
36259;SDS011;22296;50.824;5.644;2022-10-18T15:48:38;15.20;;;9.45;;
36259;SDS011;22296;50.824;5.644;2022-10-18T15:51:06;14.30;;;9.30;;
36259;SDS011;22296;50.824;5.644;2022-10-18T15:53:40;15.43;;;9.88;;
36259;SDS011;22296;50.824;5.644;2022-10-18T15:58:57;13.52;;;8.82;;
36259;SDS011;22296;50.824;5.644;2022-10-18T16:01:42;12.98;;;9.07;;
36259;SDS011;22296;50.824;5.644;2022-10-18T16:04:15;12.15;;;8.90;;
36259;SDS011;22296;50.824;5.644;2022-10-18T16:06:50;14.23;;;9.18;;
36259;SDS011;22296;50.824;5.644;2022-10-18T16:09:20;13.52;;;8.82;;
36259;SDS011;22296;50.824;5.644;2022-10-18T16:11:48;12.10;;;8.27;;
36259;SDS011;22296;50.824;5.644;2022-10-18T16:14:22;13.18;;;8.43;;
36259;SDS011;22296;50.824;5.644;2022-10-18T16:16:51;11.53;;;8.27;;
36259;SDS011;22296;50.824;5.644;2022-10-18T16:19:26;13.30;;;8.75;;
36259;SDS011;22296;50.824;5.644;2022-10-18T16:21:53;13.15;;;8.48;;
36259;SDS011;22296;50.824;5.644;2022-10-18T16:24:20;12.90;;;8.45;;
36259;SDS011;22296;50.824;5.644;2022-10-18T16:26:48;12.95;;;8.63;;
36259;SDS011;22296;50.824;5.644;2022-10-18T16:29:17;11.27;;;8.10;;
36259;SDS011;22296;50.824;5.644;2022-10-18T16:31:54;12.27;;;8.57;;
36259;SDS011;22296;50.824;5.644;2022-10-18T16:34:24;12.10;;;8.00;;
36259;SDS011;22296;50.824;5.644;2022-10-18T16:36:52;13.63;;;8.60;;
36259;SDS011;22296;50.824;5.644;2022-10-18T16:39:20;10.68;;;7.53;;
36259;SDS011;22296;50.824;5.644;2022-10-18T16:41:47;11.73;;;7.85;;
36259;SDS011;22296;50.824;5.644;2022-10-18T16:44:14;11.43;;;8.00;;
36259;SDS011;22296;50.824;5.644;2022-10-18T16:46:42;10.75;;;7.53;;
36259;SDS011;22296;50.824;5.644;2022-10-18T16:49:21;11.50;;;7.95;;
36259;SDS011;22296;50.824;5.644;2022-10-18T16:51:53;11.70;;;7.30;;
36259;SDS011;22296;50.824;5.644;2022-10-18T16:54:21;13.63;;;7.70;;
36259;SDS011;22296;50.824;5.644;2022-10-18T16:56:48;10.43;;;6.97;;
36259;SDS011;22296;50.824;5.644;2022-10-18T16:59:23;13.32;;;7.38;;
36259;SDS011;22296;50.824;5.644;2022-10-18T17:01:53;10.20;;;7.05;;
36259;SDS011;22296;50.824;5.644;2022-10-18T17:04:20;11.13;;;7.55;;
36259;SDS011;22296;50.824;5.644;2022-10-18T17:06:47;10.50;;;7.28;;
36259;SDS011;22296;50.824;5.644;2022-10-18T17:09:14;11.00;;;6.93;;
36259;SDS011;22296;50.824;5.644;2022-10-18T17:11:41;11.73;;;7.60;;
36259;SDS011;22296;50.824;5.644;2022-10-18T17:14:08;9.55;;;6.82;;
36259;SDS011;22296;50.824;5.644;2022-10-18T17:16:35;9.82;;;6.60;;
36259;SDS011;22296;50.824;5.644;2022-10-18T17:19:03;10.40;;;6.85;;
36259;SDS011;22296;50.824;5.644;2022-10-18T17:21:32;10.30;;;6.25;;
36259;SDS011;22296;50.824;5.644;2022-10-18T17:24:00;8.68;;;6.65;;
36259;SDS011;22296;50.824;5.644;2022-10-18T17:26:28;8.95;;;6.88;;
36259;SDS011;22296;50.824;5.644;2022-10-18T17:29:03;9.63;;;6.82;;
36259;SDS011;22296;50.824;5.644;2022-10-18T17:31:33;9.55;;;6.22;;
36259;SDS011;22296;50.824;5.644;2022-10-18T17:34:01;8.57;;;6.40;;
36259;SDS011;22296;50.824;5.644;2022-10-18T17:36:29;9.68;;;5.90;;
36259;SDS011;22296;50.824;5.644;2022-10-18T17:38:57;9.43;;;6.37;;
36259;SDS011;22296;50.824;5.644;2022-10-18T17:41:24;8.77;;;6.00;;
36259;SDS011;22296;50.824;5.644;2022-10-18T17:43:51;7.97;;;5.78;;
36259;SDS011;22296;50.824;5.644;2022-10-18T17:46:36;10.75;;;6.35;;
36259;SDS011;22296;50.824;5.644;2022-10-18T17:49:03;8.43;;;5.50;;
36259;SDS011;22296;50.824;5.644;2022-10-18T17:51:30;9.43;;;6.28;;
36259;SDS011;22296;50.824;5.644;2022-10-18T17:53:56;8.40;;;6.00;;
36259;SDS011;22296;50.824;5.644;2022-10-18T17:56:23;8.95;;;6.15;;
36259;SDS011;22296;50.824;5.644;2022-10-18T17:58:52;7.55;;;5.60;;
36259;SDS011;22296;50.824;5.644;2022-10-18T18:01:20;8.88;;;6.15;;
36259;SDS011;22296;50.824;5.644;2022-10-18T18:03:48;9.07;;;6.03;;
36259;SDS011;22296;50.824;5.644;2022-10-18T18:06:23;7.80;;;5.85;;
36259;SDS011;22296;50.824;5.644;2022-10-18T18:08:56;7.68;;;5.50;;
36259;SDS011;22296;50.824;5.644;2022-10-18T18:11:25;7.75;;;5.30;;
36259;SDS011;22296;50.824;5.644;2022-10-18T18:13:53;8.40;;;5.50;;
36259;SDS011;22296;50.824;5.644;2022-10-18T18:16:21;9.13;;;6.10;;
36259;SDS011;22296;50.824;5.644;2022-10-18T18:21:18;8.73;;;5.45;;
36259;SDS011;22296;50.824;5.644;2022-10-18T18:23:45;7.05;;;5.28;;
36259;SDS011;22296;50.824;5.644;2022-10-18T18:26:14;7.63;;;5.40;;
36259;SDS011;22296;50.824;5.644;2022-10-18T18:28:42;6.78;;;5.32;;
36259;SDS011;22296;50.824;5.644;2022-10-18T18:31:19;8.20;;;5.32;;
36259;SDS011;22296;50.824;5.644;2022-10-18T18:33:51;7.75;;;5.80;;
36259;SDS011;22296;50.824;5.644;2022-10-18T18:36:19;8.52;;;5.38;;
36259;SDS011;22296;50.824;5.644;2022-10-18T18:38:47;7.13;;;5.38;;
36259;SDS011;22296;50.824;5.644;2022-10-18T18:41:21;7.47;;;5.60;;
36259;SDS011;22296;50.824;5.644;2022-10-18T18:44:00;7.50;;;5.45;;